Список аэропортов
Фактическая погода:

18 августа, 15:00
Температура: +15°C (+14.1*)
Ветер: восточный 4 м/с
Давление: *761 мм
разорв. обл.
кучево-дождевые 240 м
облачно
слаб. ливневый дождь
Время (МСК)Темп. СВетерВлажностьДавлениеОблачностьОсадки
03:00+16СВ, 3 м/с98%1014 гПаоблачно
04:00+16В, 3 м/с98%1013 гПаоблачно
05:00+16В, 2 м/с98%1014 гПаоблачно
06:00+16В, 2 м/с99%1014 гПаоблачно
07:00+16СВ, 2 м/с99%1014 гПаоблачно
08:00+17В, 2 м/с98%1014 гПаоблачно
09:00+17В, 2 м/с97%1014 гПаоблачно
10:00+19В, 2 м/с92%1014 гПаоблачно
11:00+20ЮВ, 1 м/с85%1014 гПаоблачнодождь
12:00+21Ю, 2 м/с82%1014 гПаоблачносл. дождь
13:00+22Ю, 2 м/с77%1014 гПас прояснениями
14:00+22ЮЗ, 2 м/с71%1014 гПамалооблачно
15:00+22ЮЗ, 3 м/с69%1014 гПас прояснениями
16:00+22ЮЗ, 3 м/с70%1014 гПамалооблачно
17:00+22ЮЗ, 3 м/с68%1015 гПас прояснениями
18:00+22ЮЗ, 2 м/с67%1015 гПаясно
19:00+20Ю, 2 м/с77%1015 гПаоблачно
20:00+18Ю, 1 м/с88%1016 гПас прояснениями
21:00+17ЮВ, 2 м/с94%1016 гПамалооблачно
22:00+16Ю, 2 м/с95%1017 гПамалооблачно
23:00+15Ю, 2 м/с98%1017 гПаясно
20 августа
00:00+15Ю, 2 м/с98%1017 гПамалооблачно
01:00+15Ю, 2 м/с98%1018 гПамалооблачно
02:00+14Ю, 2 м/с99%1018 гПамалооблачно
03:00+13ЮВ, 2 м/с99%1018 гПас прояснениями
04:00+14ЮВ, 2 м/с98%1018 гПас прояснениями
05:00+14ЮВ, 2 м/с98%1018 гПамалооблачно
06:00+14Ю, 2 м/с97%1018 гПас прояснениями
07:00+16Ю, 3 м/с93%1018 гПас прояснениями
08:00+17Ю, 3 м/с88%1018 гПас прояснениями
09:00+18Ю, 3 м/с83%1019 гПаоблачно
10:00+21ЮВ, 2 м/с77%1019 гПаоблачно
11:00+23ЮВ, 3 м/с72%1018 гПаоблачно
12:00+24Ю, 4 м/с67%1018 гПаоблачно
13:00+25Ю, 5 м/с64%1018 гПаоблачно
14:00+26Ю, 5 м/с60%1017 гПаоблачно
15:00+26Ю, 5 м/с59%1017 гПамалооблачносл. дождь
16:00+25Ю, 4 м/с65%1016 гПамалооблачно
17:00+25Ю, 5 м/с63%1016 гПамалооблачно
18:00+25Ю, 4 м/с65%1017 гПаоблачно
19:00+24Ю, 3 м/с71%1017 гПаоблачнодождь
20:00+21ЮЗ, 2 м/с90%1017 гПаоблачнодождь
21:00+20С, 1 м/с96%1017 гПаоблачнодождь
22:00+20З, 4 м/с95%1017 гПаоблачнодождь
23:00+20З, 4 м/с93%1018 гПаоблачно
21 августа
00:00+19З, 3 м/с93%1018 гПаоблачно
01:00+18З, 3 м/с92%1019 гПаоблачно
02:00+17З, 3 м/с92%1020 гПаоблачно
03:00+16З, 2 м/с94%1021 гПаоблачно